sensor_id;sensor_type;location;lat;lon;timestamp;pressure;altitude;pressure_sealevel;temperature;humidity
37068;BME280;22982;42.848;25.468;2022-12-05T00:02:31;97300.16;;;2.10;100.00
37068;BME280;22982;42.848;25.468;2022-12-05T00:07:33;97309.72;;;2.02;100.00
37068;BME280;22982;42.848;25.468;2022-12-05T00:12:35;97311.44;;;2.04;100.00
37068;BME280;22982;42.848;25.468;2022-12-05T00:17:39;97304.78;;;1.76;100.00
37068;BME280;22982;42.848;25.468;2022-12-05T00:22:41;97309.09;;;1.75;100.00
37068;BME280;22982;42.848;25.468;2022-12-05T00:27:44;97315.22;;;1.63;100.00
37068;BME280;22982;42.848;25.468;2022-12-05T00:32:46;97309.22;;;1.63;100.00
37068;BME280;22982;42.848;25.468;2022-12-05T00:37:49;97308.41;;;1.53;100.00
37068;BME280;22982;42.848;25.468;2022-12-05T00:42:51;97312.66;;;1.62;100.00
37068;BME280;22982;42.848;25.468;2022-12-05T00:48:16;97312.66;;;1.63;100.00
37068;BME280;22982;42.848;25.468;2022-12-05T00:53:19;97307.41;;;1.68;100.00
37068;BME280;22982;42.848;25.468;2022-12-05T00:58:21;97315.88;;;1.87;100.00
37068;BME280;22982;42.848;25.468;2022-12-05T01:03:23;97304.63;;;1.92;100.00
37068;BME280;22982;42.848;25.468;2022-12-05T01:08:26;97302.97;;;1.84;100.00
37068;BME280;22982;42.848;25.468;2022-12-05T01:13:28;97309.78;;;1.97;100.00
37068;BME280;22982;42.848;25.468;2022-12-05T01:18:31;97302.06;;;1.89;100.00
37068;BME280;22982;42.848;25.468;2022-12-05T01:23:33;97302.03;;;1.96;100.00
37068;BME280;22982;42.848;25.468;2022-12-05T01:28:36;97299.50;;;1.88;100.00
37068;BME280;22982;42.848;25.468;2022-12-05T01:33:38;97284.94;;;1.81;100.00
37068;BME280;22982;42.848;25.468;2022-12-05T01:38:41;97289.91;;;2.01;100.00
37068;BME280;22982;42.848;25.468;2022-12-05T01:44:01;97285.59;;;1.98;100.00
37068;BME280;22982;42.848;25.468;2022-12-05T01:54:07;97272.72;;;1.94;100.00
37068;BME280;22982;42.848;25.468;2022-12-05T01:59:11;97276.97;;;1.99;100.00
37068;BME280;22982;42.848;25.468;2022-12-05T02:04:14;97270.06;;;1.98;100.00
37068;BME280;22982;42.848;25.468;2022-12-05T02:09:16;97268.38;;;1.97;100.00
37068;BME280;22982;42.848;25.468;2022-12-05T02:30:55;97283.38;;;1.61;100.00
37068;BME280;22982;42.848;25.468;2022-12-05T02:41:25;97269.50;;;1.68;100.00
37068;BME280;22982;42.848;25.468;2022-12-05T02:46:30;97274.72;;;1.62;100.00
37068;BME280;22982;42.848;25.468;2022-12-05T02:51:38;97275.41;;;1.84;100.00
37068;BME280;22982;42.848;25.468;2022-12-05T02:56:43;97275.28;;;1.95;100.00
37068;BME280;22982;42.848;25.468;2022-12-05T03:01:47;97254.63;;;1.92;100.00
37068;BME280;22982;42.848;25.468;2022-12-05T03:12:15;97245.09;;;1.97;100.00
37068;BME280;22982;42.848;25.468;2022-12-05T03:17:23;97250.28;;;1.94;100.00
37068;BME280;22982;42.848;25.468;2022-12-05T03:27:45;97266.88;;;1.71;100.00
37068;BME280;22982;42.848;25.468;2022-12-05T03:33:02;97275.44;;;1.80;100.00
37068;BME280;22982;42.848;25.468;2022-12-05T03:38:17;97274.53;;;1.85;100.00
37068;BME280;22982;42.848;25.468;2022-12-05T03:43:44;97277.03;;;1.93;100.00
37068;BME280;22982;42.848;25.468;2022-12-05T03:48:54;97273.66;;;1.85;100.00
37068;BME280;22982;42.848;25.468;2022-12-05T03:54:24;97268.63;;;1.69;100.00
37068;BME280;22982;42.848;25.468;2022-12-05T03:59:44;97286.69;;;1.74;100.00
37068;BME280;22982;42.848;25.468;2022-12-05T04:05:03;97281.53;;;1.71;100.00
37068;BME280;22982;42.848;25.468;2022-12-05T04:10:13;97289.38;;;1.66;100.00
37068;BME280;22982;42.848;25.468;2022-12-05T04:15:22;97290.19;;;1.68;100.00
37068;BME280;22982;42.848;25.468;2022-12-05T04:20:29;97285.16;;;1.51;100.00
37068;BME280;22982;42.848;25.468;2022-12-05T04:26:25;97286.13;;;1.43;100.00
37068;BME280;22982;42.848;25.468;2022-12-05T04:31:29;97296.38;;;1.49;100.00
37068;BME280;22982;42.848;25.468;2022-12-05T04:36:44;97286.06;;;1.46;100.00
37068;BME280;22982;42.848;25.468;2022-12-05T04:42:15;97284.31;;;1.51;100.00
37068;BME280;22982;42.848;25.468;2022-12-05T04:47:18;97285.06;;;1.62;100.00
37068;BME280;22982;42.848;25.468;2022-12-05T04:52:23;97280.78;;;1.61;100.00
37068;BME280;22982;42.848;25.468;2022-12-05T04:57:30;97286.81;;;1.57;100.00
37068;BME280;22982;42.848;25.468;2022-12-05T05:02:42;97298.81;;;1.66;100.00
37068;BME280;22982;42.848;25.468;2022-12-05T05:07:51;97297.91;;;1.71;100.00
37068;BME280;22982;42.848;25.468;2022-12-05T05:12:54;97292.81;;;1.65;100.00
37068;BME280;22982;42.848;25.468;2022-12-05T05:17:57;97289.41;;;1.59;100.00
37068;BME280;22982;42.848;25.468;2022-12-05T05:22:59;97294.72;;;1.45;100.00
37068;BME280;22982;42.848;25.468;2022-12-05T05:28:01;97298.06;;;1.56;100.00
37068;BME280;22982;42.848;25.468;2022-12-05T05:33:04;97287.72;;;1.58;100.00
37068;BME280;22982;42.848;25.468;2022-12-05T05:38:06;97290.38;;;1.45;100.00
37068;BME280;22982;42.848;25.468;2022-12-05T05:43:08;97306.00;;;1.31;100.00
37068;BME280;22982;42.848;25.468;2022-12-05T05:48:10;97311.84;;;1.57;100.00
37068;BME280;22982;42.848;25.468;2022-12-05T05:53:12;97312.63;;;1.66;100.00
37068;BME280;22982;42.848;25.468;2022-12-05T05:58:15;97314.13;;;1.94;100.00
37068;BME280;22982;42.848;25.468;2022-12-05T06:03:17;97311.56;;;1.90;100.00
37068;BME280;22982;42.848;25.468;2022-12-05T06:08:20;97301.13;;;1.98;100.00
37068;BME280;22982;42.848;25.468;2022-12-05T06:13:22;97291.69;;;1.96;100.00
37068;BME280;22982;42.848;25.468;2022-12-05T06:18:24;97291.56;;;2.05;100.00
37068;BME280;22982;42.848;25.468;2022-12-05T06:23:27;97299.94;;;2.30;100.00
37068;BME280;22982;42.848;25.468;2022-12-05T06:28:29;97312.09;;;2.20;100.00
37068;BME280;22982;42.848;25.468;2022-12-05T06:33:32;97293.44;;;1.90;100.00
37068;BME280;22982;42.848;25.468;2022-12-05T06:38:34;97315.72;;;2.02;100.00
37068;BME280;22982;42.848;25.468;2022-12-05T06:43:43;97322.75;;;1.91;100.00
37068;BME280;22982;42.848;25.468;2022-12-05T06:48:45;97330.50;;;1.91;100.00
37068;BME280;22982;42.848;25.468;2022-12-05T06:53:47;97327.09;;;1.86;100.00
37068;BME280;22982;42.848;25.468;2022-12-05T06:58:50;97335.78;;;1.79;100.00
37068;BME280;22982;42.848;25.468;2022-12-05T07:03:54;97340.81;;;1.97;100.00
37068;BME280;22982;42.848;25.468;2022-12-05T07:08:57;97333.34;;;1.59;100.00
37068;BME280;22982;42.848;25.468;2022-12-05T07:13:59;97345.34;;;1.70;100.00
37068;BME280;22982;42.848;25.468;2022-12-05T07:19:11;97349.44;;;1.96;100.00
37068;BME280;22982;42.848;25.468;2022-12-05T07:24:13;97350.31;;;1.94;100.00
37068;BME280;22982;42.848;25.468;2022-12-05T07:29:15;97358.22;;;1.77;100.00
37068;BME280;22982;42.848;25.468;2022-12-05T07:34:19;97366.69;;;1.97;100.00
37068;BME280;22982;42.848;25.468;2022-12-05T07:39:21;97355.22;;;2.23;100.00
37068;BME280;22982;42.848;25.468;2022-12-05T07:44:26;97373.44;;;2.14;100.00
37068;BME280;22982;42.848;25.468;2022-12-05T07:49:28;97368.25;;;2.14;100.00
37068;BME280;22982;42.848;25.468;2022-12-05T07:54:32;97368.28;;;2.10;100.00
37068;BME280;22982;42.848;25.468;2022-12-05T07:59:35;97364.84;;;2.12;100.00
37068;BME280;22982;42.848;25.468;2022-12-05T08:04:37;97365.13;;;2.67;100.00
37068;BME280;22982;42.848;25.468;2022-12-05T08:09:40;97368.91;;;3.10;100.00
37068;BME280;22982;42.848;25.468;2022-12-05T08:14:42;97362.94;;;3.03;100.00
37068;BME280;22982;42.848;25.468;2022-12-05T08:19:45;97357.81;;;2.99;100.00
37068;BME280;22982;42.848;25.468;2022-12-05T08:24:49;97362.22;;;2.91;100.00
37068;BME280;22982;42.848;25.468;2022-12-05T08:29:57;97351.81;;;2.97;100.00
37068;BME280;22982;42.848;25.468;2022-12-05T08:35:00;97351.22;;;3.40;100.00
37068;BME280;22982;42.848;25.468;2022-12-05T08:40:03;97328.69;;;3.98;100.00
37068;BME280;22982;42.848;25.468;2022-12-05T08:45:07;97325.00;;;4.56;100.00
37068;BME280;22982;42.848;25.468;2022-12-05T08:50:09;97317.97;;;4.16;100.00
37068;BME280;22982;42.848;25.468;2022-12-05T08:55:12;97321.69;;;4.03;100.00
37068;BME280;22982;42.848;25.468;2022-12-05T09:00:15;97318.84;;;4.15;100.00
37068;BME280;22982;42.848;25.468;2022-12-05T09:05:18;97307.38;;;4.29;100.00
37068;BME280;22982;42.848;25.468;2022-12-05T09:10:30;97302.19;;;4.29;100.00
37068;BME280;22982;42.848;25.468;2022-12-05T09:15:32;97282.47;;;5.04;100.00
37068;BME280;22982;42.848;25.468;2022-12-05T09:20:38;97286.91;;;5.36;100.00
37068;BME280;22982;42.848;25.468;2022-12-05T09:25:40;97267.91;;;5.70;100.00
37068;BME280;22982;42.848;25.468;2022-12-05T09:31:10;97269.69;;;6.36;100.00
37068;BME280;22982;42.848;25.468;2022-12-05T09:36:20;97268.84;;;6.96;100.00
37068;BME280;22982;42.848;25.468;2022-12-05T09:47:14;97254.66;;;6.77;100.00
37068;BME280;22982;42.848;25.468;2022-12-05T09:52:24;97245.47;;;6.93;100.00
37068;BME280;22982;42.848;25.468;2022-12-05T09:57:34;97242.19;;;6.86;100.00
37068;BME280;22982;42.848;25.468;2022-12-05T10:03:21;97248.31;;;6.85;100.00
37068;BME280;22982;42.848;25.468;2022-12-05T10:08:36;97238.06;;;7.07;100.00
37068;BME280;22982;42.848;25.468;2022-12-05T10:18:49;97228.72;;;7.00;100.00
37068;BME280;22982;42.848;25.468;2022-12-05T10:24:29;97231.06;;;8.15;100.00
37068;BME280;22982;42.848;25.468;2022-12-05T10:29:32;97221.78;;;8.80;97.25
37068;BME280;22982;42.848;25.468;2022-12-05T10:34:39;97220.19;;;8.27;98.20
37068;BME280;22982;42.848;25.468;2022-12-05T10:39:42;97211.50;;;8.27;99.20
37068;BME280;22982;42.848;25.468;2022-12-05T10:44:47;97194.88;;;8.76;97.31
37068;BME280;22982;42.848;25.468;2022-12-05T10:49:55;97201.06;;;8.74;97.01
37068;BME280;22982;42.848;25.468;2022-12-05T10:55:03;97186.88;;;8.57;96.34
37068;BME280;22982;42.848;25.468;2022-12-05T11:00:13;97196.28;;;8.85;94.61
37068;BME280;22982;42.848;25.468;2022-12-05T11:05:27;97181.16;;;8.22;99.08
37068;BME280;22982;42.848;25.468;2022-12-05T11:10:35;97176.59;;;8.04;99.94
37068;BME280;22982;42.848;25.468;2022-12-05T11:15:46;97173.16;;;8.02;100.00
37068;BME280;22982;42.848;25.468;2022-12-05T11:21:08;97172.34;;;7.76;100.00
37068;BME280;22982;42.848;25.468;2022-12-05T11:26:35;97187.72;;;8.09;100.00
37068;BME280;22982;42.848;25.468;2022-12-05T11:31:37;97174.06;;;7.77;100.00
37068;BME280;22982;42.848;25.468;2022-12-05T11:37:11;97161.19;;;7.71;100.00
37068;BME280;22982;42.848;25.468;2022-12-05T11:48:13;97164.31;;;7.82;100.00
37068;BME280;22982;42.848;25.468;2022-12-05T11:53:35;97163.66;;;7.76;100.00
37068;BME280;22982;42.848;25.468;2022-12-05T11:59:21;97160.34;;;7.71;100.00
37068;BME280;22982;42.848;25.468;2022-12-05T12:04:48;97164.25;;;7.59;100.00
37068;BME280;22982;42.848;25.468;2022-12-05T12:15:51;97173.38;;;8.21;100.00
37068;BME280;22982;42.848;25.468;2022-12-05T12:32:26;97133.84;;;8.30;99.43
37068;BME280;22982;42.848;25.468;2022-12-05T12:37:36;97138.84;;;8.13;100.00
37068;BME280;22982;42.848;25.468;2022-12-05T13:03:51;97123.75;;;7.47;100.00
37068;BME280;22982;42.848;25.468;2022-12-05T13:09:10;97134.34;;;7.42;100.00
37068;BME280;22982;42.848;25.468;2022-12-05T13:14:18;97128.69;;;7.55;100.00
37068;BME280;22982;42.848;25.468;2022-12-05T13:24:41;97113.81;;;7.06;100.00
37068;BME280;22982;42.848;25.468;2022-12-05T13:40:29;97114.09;;;7.24;100.00
37068;BME280;22982;42.848;25.468;2022-12-05T13:46:08;97109.56;;;7.02;100.00
37068;BME280;22982;42.848;25.468;2022-12-05T14:17:12;97093.41;;;6.93;100.00
37068;BME280;22982;42.848;25.468;2022-12-05T14:28:01;97099.84;;;6.54;100.00
37068;BME280;22982;42.848;25.468;2022-12-05T14:33:16;97080.94;;;6.18;100.00
37068;BME280;22982;42.848;25.468;2022-12-05T14:38:27;97105.28;;;6.17;100.00
37068;BME280;22982;42.848;25.468;2022-12-05T14:43:32;97100.94;;;6.17;100.00
37068;BME280;22982;42.848;25.468;2022-12-05T14:48:40;97103.69;;;6.12;100.00
37068;BME280;22982;42.848;25.468;2022-12-05T14:53:49;97108.22;;;6.06;100.00
37068;BME280;22982;42.848;25.468;2022-12-05T14:58:58;97122.03;;;6.08;100.00
37068;BME280;22982;42.848;25.468;2022-12-05T15:04:07;97111.50;;;6.12;100.00
37068;BME280;22982;42.848;25.468;2022-12-05T15:09:30;97111.34;;;6.17;100.00
37068;BME280;22982;42.848;25.468;2022-12-05T15:15:02;97122.56;;;6.19;100.00
37068;BME280;22982;42.848;25.468;2022-12-05T15:20:19;97121.69;;;6.20;100.00
37068;BME280;22982;42.848;25.468;2022-12-05T15:25:31;97125.78;;;6.29;100.00
37068;BME280;22982;42.848;25.468;2022-12-05T15:30:36;97116.28;;;6.26;100.00
37068;BME280;22982;42.848;25.468;2022-12-05T15:35:45;97081.38;;;6.04;100.00
37068;BME280;22982;42.848;25.468;2022-12-05T15:40:50;97116.47;;;6.20;100.00
37068;BME280;22982;42.848;25.468;2022-12-05T15:46:07;97127.06;;;6.14;100.00
37068;BME280;22982;42.848;25.468;2022-12-05T15:51:11;97141.38;;;5.99;100.00
37068;BME280;22982;42.848;25.468;2022-12-05T16:01:21;97114.41;;;5.69;100.00
37068;BME280;22982;42.848;25.468;2022-12-05T16:12:03;97103.69;;;5.48;100.00
37068;BME280;22982;42.848;25.468;2022-12-05T16:17:13;97127.03;;;5.51;100.00
37068;BME280;22982;42.848;25.468;2022-12-05T16:22:22;97121.06;;;5.48;100.00
37068;BME280;22982;42.848;25.468;2022-12-05T16:27:28;97121.56;;;5.61;100.00
37068;BME280;22982;42.848;25.468;2022-12-05T16:32:34;97111.16;;;5.61;100.00
37068;BME280;22982;42.848;25.468;2022-12-05T16:37:37;97110.84;;;5.73;100.00
37068;BME280;22982;42.848;25.468;2022-12-05T16:42:40;97102.34;;;5.66;100.00
37068;BME280;22982;42.848;25.468;2022-12-05T16:52:45;97100.50;;;5.70;100.00
37068;BME280;22982;42.848;25.468;2022-12-05T16:57:48;97107.84;;;5.55;100.00
37068;BME280;22982;42.848;25.468;2022-12-05T17:02:51;97090.50;;;5.54;100.00
37068;BME280;22982;42.848;25.468;2022-12-05T17:07:56;97103.00;;;5.42;100.00
37068;BME280;22982;42.848;25.468;2022-12-05T17:12:59;97110.47;;;5.54;100.00
37068;BME280;22982;42.848;25.468;2022-12-05T17:18:11;97100.28;;;5.46;100.00
37068;BME280;22982;42.848;25.468;2022-12-05T17:23:16;97116.38;;;5.61;100.00
37068;BME280;22982;42.848;25.468;2022-12-05T17:28:19;97117.28;;;5.58;100.00
37068;BME280;22982;42.848;25.468;2022-12-05T17:33:22;97111.56;;;5.45;100.00
37068;BME280;22982;42.848;25.468;2022-12-05T17:38:25;97100.22;;;5.49;100.00
37068;BME280;22982;42.848;25.468;2022-12-05T17:43:27;97108.28;;;5.39;100.00
37068;BME280;22982;42.848;25.468;2022-12-05T17:48:30;97109.25;;;5.34;100.00
37068;BME280;22982;42.848;25.468;2022-12-05T17:53:32;97092.31;;;5.20;100.00
37068;BME280;22982;42.848;25.468;2022-12-05T17:58:36;97106.25;;;5.17;100.00
37068;BME280;22982;42.848;25.468;2022-12-05T18:03:38;97094.31;;;5.08;100.00
37068;BME280;22982;42.848;25.468;2022-12-05T18:08:41;97112.28;;;5.17;100.00
37068;BME280;22982;42.848;25.468;2022-12-05T18:13:46;97110.56;;;5.16;100.00
37068;BME280;22982;42.848;25.468;2022-12-05T18:18:49;97099.97;;;5.26;100.00
37068;BME280;22982;42.848;25.468;2022-12-05T18:23:51;97115.38;;;5.32;100.00
37068;BME280;22982;42.848;25.468;2022-12-05T18:28:55;97111.25;;;5.25;100.00
37068;BME280;22982;42.848;25.468;2022-12-05T18:33:58;97098.06;;;5.31;100.00
37068;BME280;22982;42.848;25.468;2022-12-05T18:39:01;97065.31;;;5.24;100.00
37068;BME280;22982;42.848;25.468;2022-12-05T18:44:03;97089.06;;;5.44;100.00
37068;BME280;22982;42.848;25.468;2022-12-05T18:49:07;97083.28;;;5.33;100.00
37068;BME280;22982;42.848;25.468;2022-12-05T18:54:09;97104.75;;;5.41;100.00
37068;BME280;22982;42.848;25.468;2022-12-05T18:59:15;97110.06;;;5.36;100.00
37068;BME280;22982;42.848;25.468;2022-12-05T19:04:19;97096.06;;;5.42;100.00
37068;BME280;22982;42.848;25.468;2022-12-05T19:09:25;97099.47;;;5.44;100.00
37068;BME280;22982;42.848;25.468;2022-12-05T19:14:29;97077.00;;;5.40;100.00
37068;BME280;22982;42.848;25.468;2022-12-05T19:19:35;97092.34;;;5.51;100.00
37068;BME280;22982;42.848;25.468;2022-12-05T19:24:38;97091.28;;;5.58;100.00
37068;BME280;22982;42.848;25.468;2022-12-05T19:29:41;97084.91;;;5.70;100.00
37068;BME280;22982;42.848;25.468;2022-12-05T19:34:43;97070.75;;;5.47;100.00
37068;BME280;22982;42.848;25.468;2022-12-05T19:39:47;97078.00;;;5.36;100.00
37068;BME280;22982;42.848;25.468;2022-12-05T19:44:52;97092.78;;;5.34;100.00
37068;BME280;22982;42.848;25.468;2022-12-05T19:49:55;97075.72;;;5.24;100.00
37068;BME280;22982;42.848;25.468;2022-12-05T19:54:58;97084.25;;;5.29;100.00
37068;BME280;22982;42.848;25.468;2022-12-05T20:00:01;97070.75;;;5.14;100.00
37068;BME280;22982;42.848;25.468;2022-12-05T20:05:13;97071.13;;;5.35;100.00
37068;BME280;22982;42.848;25.468;2022-12-05T20:10:15;97063.88;;;5.13;100.00
37068;BME280;22982;42.848;25.468;2022-12-05T20:15:19;97077.19;;;5.34;100.00
37068;BME280;22982;42.848;25.468;2022-12-05T20:20:21;97072.72;;;5.39;100.00
37068;BME280;22982;42.848;25.468;2022-12-05T20:25:24;97060.81;;;5.30;100.00
37068;BME280;22982;42.848;25.468;2022-12-05T20:30:26;97050.44;;;5.29;100.00
37068;BME280;22982;42.848;25.468;2022-12-05T20:35:34;97079.16;;;5.26;100.00
37068;BME280;22982;42.848;25.468;2022-12-05T20:40:36;97060.50;;;5.10;100.00
37068;BME280;22982;42.848;25.468;2022-12-05T20:45:39;97067.34;;;5.12;100.00
37068;BME280;22982;42.848;25.468;2022-12-05T20:50:41;97047.50;;;5.10;100.00
37068;BME280;22982;42.848;25.468;2022-12-05T20:55:45;97039.41;;;5.21;100.00
37068;BME280;22982;42.848;25.468;2022-12-05T21:00:47;97059.72;;;5.39;100.00
37068;BME280;22982;42.848;25.468;2022-12-05T21:05:49;97056.81;;;5.18;100.00
37068;BME280;22982;42.848;25.468;2022-12-05T21:10:52;97069.09;;;5.12;100.00
37068;BME280;22982;42.848;25.468;2022-12-05T21:15:54;97045.28;;;4.94;100.00
37068;BME280;22982;42.848;25.468;2022-12-05T21:20:59;97064.00;;;5.07;100.00
37068;BME280;22982;42.848;25.468;2022-12-05T21:26:05;97069.22;;;5.07;100.00
37068;BME280;22982;42.848;25.468;2022-12-05T21:31:12;97056.66;;;5.23;100.00
37068;BME280;22982;42.848;25.468;2022-12-05T21:36:16;97063.38;;;5.32;100.00
37068;BME280;22982;42.848;25.468;2022-12-05T21:41:19;97036.19;;;5.11;100.00
37068;BME280;22982;42.848;25.468;2022-12-05T21:46:23;97050.13;;;5.08;100.00
37068;BME280;22982;42.848;25.468;2022-12-05T21:51:26;97031.19;;;5.03;100.00
37068;BME280;22982;42.848;25.468;2022-12-05T21:56:29;97026.06;;;5.00;100.00
37068;BME280;22982;42.848;25.468;2022-12-05T22:01:31;97025.81;;;5.09;100.00
37068;BME280;22982;42.848;25.468;2022-12-05T22:06:34;97005.94;;;5.08;100.00
37068;BME280;22982;42.848;25.468;2022-12-05T22:11:37;97014.72;;;5.04;100.00
37068;BME280;22982;42.848;25.468;2022-12-05T22:16:39;97003.91;;;4.87;100.00
37068;BME280;22982;42.848;25.468;2022-12-05T22:21:42;97012.03;;;5.07;100.00
37068;BME280;22982;42.848;25.468;2022-12-05T22:26:44;96986.78;;;4.79;100.00
37068;BME280;22982;42.848;25.468;2022-12-05T22:31:48;97000.53;;;4.83;100.00
37068;BME280;22982;42.848;25.468;2022-12-05T22:36:50;97003.06;;;4.86;100.00
37068;BME280;22982;42.848;25.468;2022-12-05T22:41:55;96990.78;;;4.57;100.00
37068;BME280;22982;42.848;25.468;2022-12-05T22:46:58;96988.06;;;4.63;100.00
37068;BME280;22982;42.848;25.468;2022-12-05T22:52:00;96994.00;;;4.68;100.00
37068;BME280;22982;42.848;25.468;2022-12-05T22:57:02;96969.09;;;4.59;100.00
37068;BME280;22982;42.848;25.468;2022-12-05T23:02:05;96958.50;;;4.67;100.00
37068;BME280;22982;42.848;25.468;2022-12-05T23:07:07;96949.22;;;4.57;100.00
37068;BME280;22982;42.848;25.468;2022-12-05T23:12:09;96957.56;;;4.35;100.00
37068;BME280;22982;42.848;25.468;2022-12-05T23:17:11;96938.78;;;4.26;100.00
37068;BME280;22982;42.848;25.468;2022-12-05T23:22:14;96949.34;;;4.54;100.00
37068;BME280;22982;42.848;25.468;2022-12-05T23:27:16;96943.84;;;4.30;100.00
37068;BME280;22982;42.848;25.468;2022-12-05T23:32:19;96956.19;;;4.20;100.00
37068;BME280;22982;42.848;25.468;2022-12-05T23:37:21;96955.91;;;3.95;100.00
37068;BME280;22982;42.848;25.468;2022-12-05T23:42:24;96929.44;;;3.81;100.00
37068;BME280;22982;42.848;25.468;2022-12-05T23:47:27;96946.72;;;3.82;100.00
37068;BME280;22982;42.848;25.468;2022-12-05T23:52:29;96929.31;;;3.87;100.00
37068;BME280;22982;42.848;25.468;2022-12-05T23:57:31;96920.19;;;3.71;100.00
